createdAt,value
2019-05-17T00:01:42.619Z,15.17
2019-05-17T00:04:16.486Z,15.19
2019-05-17T00:06:48.558Z,15.22
2019-05-17T00:09:20.809Z,15.24
2019-05-17T00:11:52.968Z,15.24
2019-05-17T00:14:27.107Z,15.24
2019-05-17T00:16:59.060Z,15.24
2019-05-17T00:19:32.119Z,15.24
2019-05-17T00:22:07.391Z,15.23
2019-05-17T00:24:39.060Z,15.22
2019-05-17T00:27:10.167Z,15.19
2019-05-17T00:29:41.928Z,15.13
2019-05-17T00:32:14.229Z,15.14
2019-05-17T00:34:46.979Z,15.12
2019-05-17T00:37:17.706Z,15.07
2019-05-17T00:39:49.529Z,15.06
2019-05-17T00:42:21.533Z,15.06
2019-05-17T00:44:52.509Z,15.06
2019-05-17T00:47:26.411Z,15.03
2019-05-17T00:49:58.198Z,15.03
2019-05-17T00:52:30.449Z,15.08
2019-05-17T00:55:02.483Z,15.08
2019-05-17T00:57:33.548Z,15.08
2019-05-17T01:00:05.680Z,15.06
2019-05-17T01:02:37.624Z,15.04
2019-05-17T01:05:10.078Z,15.06
2019-05-17T01:07:42.120Z,15.06
2019-05-17T01:10:13.647Z,15.07
2019-05-17T01:12:45.416Z,15.05
2019-05-17T01:15:19.288Z,15.04
2019-05-17T01:17:51.558Z,15.04
2019-05-17T01:20:22.687Z,15.05
2019-05-17T01:22:56.534Z,15.02
2019-05-17T01:25:28.373Z,15.02
2019-05-17T01:28:00.399Z,15.01
2019-05-17T01:30:32.739Z,15.01
2019-05-17T01:33:06.580Z,15.01
2019-05-17T01:35:38.598Z,15.00
2019-05-17T01:38:12.268Z,15.01
2019-05-17T01:40:43.468Z,15.00
2019-05-17T01:43:16.669Z,14.96
2019-05-17T01:45:48.788Z,14.95
2019-05-17T01:48:21.628Z,14.96
2019-05-17T01:50:56.790Z,14.94
2019-05-17T01:53:37.020Z,14.93
2019-05-17T01:56:11.700Z,14.90
2019-05-17T01:58:43.980Z,14.90
2019-05-17T02:01:16.971Z,14.91
2019-05-17T02:03:49.249Z,14.91
2019-05-17T02:06:20.347Z,14.89
2019-05-17T02:08:52.379Z,14.81
2019-05-17T02:11:26.756Z,14.77
2019-05-17T02:13:58.369Z,14.77
2019-05-17T02:16:33.829Z,14.77
2019-05-17T02:19:06.886Z,14.76
2019-05-17T02:21:42.598Z,14.76
2019-05-17T02:24:16.967Z,14.75
2019-05-17T02:26:50.841Z,14.72
2019-05-17T02:29:27.779Z,14.70
2019-05-17T02:32:06.851Z,14.69
2019-05-17T02:34:42.966Z,14.68
2019-05-17T02:37:23.533Z,14.66
2019-05-17T02:40:04.577Z,14.65
2019-05-17T02:42:42.997Z,14.64
2019-05-17T02:45:15.899Z,14.66
2019-05-17T02:47:54.080Z,14.65
2019-05-17T02:50:28.580Z,14.67
2019-05-17T02:53:06.617Z,14.69
2019-05-17T02:55:39.584Z,14.71
2019-05-17T02:58:12.872Z,14.72
2019-05-17T03:00:45.745Z,14.73
2019-05-17T03:03:23.657Z,14.76
2019-05-17T03:05:57.040Z,14.76
2019-05-17T03:08:34.210Z,14.79
2019-05-17T03:11:13.959Z,14.79
2019-05-17T03:13:52.559Z,14.82
2019-05-17T03:16:24.974Z,14.82
2019-05-17T03:18:57.931Z,14.81
2019-05-17T03:21:33.749Z,14.83
2019-05-17T03:24:08.471Z,14.87
2019-05-17T03:26:42.960Z,14.92
2019-05-17T03:29:14.771Z,14.93
2019-05-17T03:31:57.582Z,14.96
2019-05-17T03:34:26.375Z,15.00
2019-05-17T03:36:57.052Z,15.05
2019-05-17T03:39:33.278Z,15.09
2019-05-17T03:42:05.360Z,15.17
2019-05-17T03:44:39.070Z,15.23
2019-05-17T03:47:13.129Z,15.30
2019-05-17T03:49:49.098Z,15.34
2019-05-17T03:52:22.387Z,15.35
2019-05-17T03:54:56.736Z,15.39
2019-05-17T03:57:29.219Z,15.42
2019-05-17T04:00:03.804Z,15.44
2019-05-17T04:02:43.793Z,15.47
2019-05-17T04:05:14.311Z,15.51
2019-05-17T04:07:46.908Z,15.53
2019-05-17T04:10:22.831Z,15.54
2019-05-17T04:13:12.707Z,15.53
2019-05-17T04:15:52.717Z,15.52
2019-05-17T04:18:26.100Z,15.50
2019-05-17T04:20:58.552Z,15.49
2019-05-17T04:23:34.014Z,15.50
2019-05-17T04:26:06.149Z,15.46
2019-05-17T04:28:39.011Z,15.41
2019-05-17T04:31:13.343Z,15.42
2019-05-17T04:33:47.348Z,15.44
2019-05-17T04:36:22.459Z,15.48
2019-05-17T04:38:54.974Z,15.51
2019-05-17T04:41:41.551Z,15.53
2019-05-17T04:44:05.688Z,15.54
2019-05-17T04:46:39.218Z,15.55
2019-05-17T04:49:14.989Z,15.59
2019-05-17T04:51:47.730Z,15.63
2019-05-17T04:54:24.418Z,15.67
2019-05-17T04:56:56.642Z,15.72
2019-05-17T04:59:33.358Z,15.77
2019-05-17T05:02:12.923Z,15.83
2019-05-17T05:04:47.527Z,15.88
2019-05-17T05:07:22.691Z,15.96
2019-05-17T05:09:58.490Z,16.02
2019-05-17T05:12:33.636Z,16.06
2019-05-17T05:15:08.400Z,16.10
2019-05-17T05:17:42.585Z,16.12
2019-05-17T05:20:15.592Z,16.16
2019-05-17T05:22:48.375Z,16.21
2019-05-17T05:25:21.653Z,16.26
2019-05-17T05:31:13.355Z,16.33
2019-05-17T05:33:46.365Z,16.41
2019-05-17T05:36:18.875Z,16.49
2019-05-17T05:38:51.645Z,16.50
2019-05-17T05:41:26.299Z,16.50
2019-05-17T05:43:58.827Z,16.53
2019-05-17T05:46:31.797Z,16.57
2019-05-17T05:49:05.274Z,16.55
2019-05-17T05:51:38.160Z,16.58
2019-05-17T05:54:12.317Z,16.60
2019-05-17T05:56:44.910Z,16.64
2019-05-17T05:59:17.541Z,16.73
2019-05-17T06:01:52.426Z,16.88
2019-05-17T06:04:24.438Z,17.03
2019-05-17T06:06:57.230Z,17.25
2019-05-17T06:09:31.752Z,17.48
2019-05-17T06:12:03.976Z,17.49
2019-05-17T06:14:36.585Z,17.39
2019-05-17T06:17:09.105Z,17.26
2019-05-17T06:19:42.862Z,17.10
2019-05-17T06:22:15.854Z,17.05
2019-05-17T06:24:48.495Z,17.00
2019-05-17T06:27:21.584Z,16.99
2019-05-17T06:29:54.575Z,16.96
2019-05-17T06:32:27.377Z,16.93
2019-05-17T06:35:01.886Z,16.86
2019-05-17T06:37:34.157Z,16.85
2019-05-17T06:40:06.840Z,16.79
2019-05-17T06:42:44.126Z,16.74
2019-05-17T06:45:14.516Z,16.73
2019-05-17T06:47:47.255Z,16.76
2019-05-17T06:50:23.466Z,16.81
2019-05-17T06:52:55.303Z,16.87
2019-05-17T06:55:27.909Z,16.95
2019-05-17T06:58:01.720Z,17.07
2019-05-17T07:00:34.445Z,17.14
2019-05-17T07:03:09.408Z,17.12
2019-05-17T07:05:43.346Z,17.10
2019-05-17T07:08:16.035Z,17.14
2019-05-17T07:10:50.239Z,17.30
2019-05-17T07:13:22.917Z,17.46
2019-05-17T07:15:55.685Z,17.61
2019-05-17T07:18:30.048Z,17.70
2019-05-17T07:21:03.440Z,17.72
2019-05-17T07:23:36.195Z,17.66
2019-05-17T07:26:11.821Z,17.59
2019-05-17T07:28:43.436Z,17.47
2019-05-17T07:31:16.296Z,17.35
2019-05-17T07:33:50.458Z,17.24
2019-05-17T07:36:23.196Z,17.16
2019-05-17T07:38:55.863Z,17.14
2019-05-17T07:41:29.834Z,17.21
2019-05-17T07:44:03.550Z,17.32
2019-05-17T07:49:06.571Z,17.65
2019-05-17T07:51:39.663Z,17.65
2019-05-17T07:54:13.906Z,17.63
2019-05-17T07:56:46.335Z,17.60
2019-05-17T07:59:19.998Z,17.52
2019-05-17T08:01:52.745Z,17.52
2019-05-17T08:04:31.735Z,17.52
2019-05-17T08:07:04.676Z,17.56
2019-05-17T08:09:37.216Z,17.54
2019-05-17T08:12:11.026Z,17.61
2019-05-17T08:14:43.686Z,17.62
2019-05-17T08:17:16.285Z,17.64
2019-05-17T08:19:49.779Z,17.62
2019-05-17T08:22:22.586Z,17.65
2019-05-17T08:24:55.015Z,17.77
2019-05-17T08:27:29.658Z,17.89
2019-05-17T08:30:01.706Z,18.06
2019-05-17T08:32:34.495Z,18.14
2019-05-17T08:35:07.298Z,18.20
2019-05-17T08:37:42.471Z,18.20
2019-05-17T08:40:15.484Z,18.18
2019-05-17T08:42:49.882Z,18.10
2019-05-17T08:45:22.466Z,17.95
2019-05-17T08:47:54.841Z,17.81
2019-05-17T08:50:29.365Z,17.68
2019-05-17T08:53:02.168Z,17.52
2019-05-17T08:55:34.706Z,17.42
2019-05-17T08:58:09.997Z,17.40
2019-05-17T09:00:41.596Z,17.39
2019-05-17T09:03:14.286Z,17.39
2019-05-17T09:05:46.877Z,17.43
2019-05-17T09:08:20.580Z,17.46
2019-05-17T09:10:53.536Z,17.47
2019-05-17T09:13:26.142Z,17.49
2019-05-17T09:16:00.269Z,17.55
2019-05-17T09:18:33.335Z,17.88
2019-05-17T09:21:06.177Z,18.33
2019-05-17T09:23:39.644Z,18.83
2019-05-17T09:26:12.549Z,19.67
2019-05-17T09:28:45.530Z,19.90
2019-05-17T09:31:21.676Z,19.88
2019-05-17T09:33:54.556Z,19.79
2019-05-17T09:36:30.104Z,19.67
2019-05-17T09:39:01.853Z,19.62
2019-05-17T09:41:36.475Z,20.33
2019-05-17T09:44:15.674Z,21.23
2019-05-17T09:46:43.505Z,21.94
2019-05-17T09:49:15.946Z,22.57
2019-05-17T09:51:49.684Z,23.01
2019-05-17T09:54:37.240Z,22.79
2019-05-17T09:56:57.596Z,22.40
2019-05-17T09:59:30.335Z,22.20
2019-05-17T10:02:02.825Z,22.30
2019-05-17T10:04:35.463Z,22.93
2019-05-17T10:07:10.201Z,22.96
2019-05-17T10:09:42.176Z,22.95
2019-05-17T10:12:14.774Z,22.97
2019-05-17T10:14:55.195Z,22.67
2019-05-17T10:17:29.477Z,22.40
2019-05-17T10:20:02.316Z,22.14
2019-05-17T10:22:34.887Z,22.03
2019-05-17T10:25:10.420Z,22.01
2019-05-17T10:27:43.047Z,22.36
2019-05-17T10:30:15.547Z,23.01
2019-05-17T10:32:50.607Z,23.50
2019-05-17T10:35:22.418Z,23.67
2019-05-17T10:37:55.697Z,24.30
2019-05-17T10:40:29.881Z,24.33
2019-05-17T10:43:03.780Z,23.88
2019-05-17T10:45:40.095Z,23.42
2019-05-17T10:48:13.816Z,23.16
2019-05-17T10:55:54.005Z,22.94
2019-05-17T10:58:26.606Z,22.94
2019-05-17T11:01:00.809Z,23.49
2019-05-17T11:03:34.666Z,23.67
2019-05-17T11:06:07.518Z,23.57
2019-05-17T11:08:39.926Z,23.40
2019-05-17T11:11:12.575Z,23.28
2019-05-17T11:13:45.125Z,24.26
2019-05-17T11:16:17.715Z,25.09
2019-05-17T11:18:51.005Z,25.15
2019-05-17T11:21:23.737Z,25.33
2019-05-17T11:23:56.213Z,25.56
2019-05-17T11:26:29.015Z,25.30
2019-05-17T11:29:27.771Z,24.58
2019-05-17T11:32:37.297Z,23.82
2019-05-17T11:35:45.395Z,22.84
2019-05-17T11:38:21.555Z,22.12
2019-05-17T11:40:54.300Z,21.54
2019-05-17T11:43:26.776Z,21.25
2019-05-17T11:45:59.370Z,21.02
2019-05-17T11:48:31.845Z,20.26
2019-05-17T11:51:04.525Z,20.26
2019-05-17T11:53:37.035Z,19.89
2019-05-17T11:56:09.616Z,19.57
2019-05-17T11:58:42.095Z,19.24
2019-05-17T12:01:14.957Z,18.82
2019-05-17T12:03:47.556Z,18.79
2019-05-17T12:06:20.406Z,18.45
2019-05-17T12:08:53.166Z,18.30
2019-05-17T12:11:25.765Z,18.22
2019-05-17T12:13:58.716Z,18.29
2019-05-17T12:16:31.256Z,18.58
2019-05-17T12:19:03.860Z,19.00
2019-05-17T12:21:36.476Z,19.80
2019-05-17T12:24:09.641Z,20.02
2019-05-17T12:26:42.296Z,20.20
2019-05-17T12:29:15.185Z,20.26
2019-05-17T12:31:47.619Z,20.14
2019-05-17T12:34:21.455Z,20.09
2019-05-17T12:36:54.056Z,20.14
2019-05-17T12:39:26.479Z,20.27
2019-05-17T12:41:59.245Z,20.85
2019-05-17T12:44:31.877Z,21.77
2019-05-17T12:47:04.826Z,21.95
2019-05-17T12:49:37.528Z,22.52
2019-05-17T12:52:10.397Z,23.61
2019-05-17T12:54:43.136Z,23.63
2019-05-17T12:57:16.886Z,23.07
2019-05-17T12:59:49.575Z,22.88
2019-05-17T13:02:22.256Z,22.91
2019-05-17T13:04:55.117Z,22.61
2019-05-17T13:07:28.045Z,22.51
2019-05-17T13:10:00.656Z,23.55
2019-05-17T13:12:33.454Z,23.19
2019-05-17T13:15:07.329Z,22.95
2019-05-17T13:17:39.848Z,23.21
2019-05-17T13:20:13.216Z,23.47
2019-05-17T13:22:46.289Z,23.49
2019-05-17T13:25:18.962Z,23.38
2019-05-17T13:27:53.147Z,23.02
2019-05-17T13:30:25.925Z,22.54
2019-05-17T13:32:58.947Z,22.29
2019-05-17T13:35:31.602Z,22.07
2019-05-17T13:38:04.297Z,22.12
2019-05-17T13:40:39.641Z,22.55
2019-05-17T13:43:11.272Z,22.85
2019-05-17T13:45:44.717Z,22.69
2019-05-17T13:48:17.796Z,22.59
2019-05-17T13:50:52.909Z,22.34
2019-05-17T13:53:25.943Z,22.15
2019-05-17T13:55:59.487Z,22.00
2019-05-17T13:58:31.984Z,22.00
2019-05-17T14:01:04.656Z,21.97
2019-05-17T14:03:37.312Z,21.76
2019-05-17T14:06:09.866Z,21.76
2019-05-17T14:08:42.592Z,21.64
2019-05-17T14:11:15.158Z,21.54
2019-05-17T14:13:47.658Z,21.45
2019-05-17T14:16:20.359Z,21.40
2019-05-17T14:18:52.819Z,21.35
2019-05-17T14:21:25.455Z,21.34
2019-05-17T14:23:58.565Z,21.34
2019-05-17T14:26:32.047Z,21.35
2019-05-17T14:29:04.576Z,21.38
2019-05-17T14:31:37.268Z,21.28
2019-05-17T14:34:10.075Z,21.20
2019-05-17T14:36:42.964Z,21.18
2019-05-17T14:39:17.097Z,21.23
2019-05-17T14:41:49.607Z,21.25
2019-05-17T14:44:22.606Z,21.70
2019-05-17T14:46:55.137Z,22.51
2019-05-17T14:49:27.756Z,23.05
2019-05-17T14:52:00.317Z,23.21
2019-05-17T14:54:32.796Z,23.55
2019-05-17T14:57:05.429Z,23.55
2019-05-17T14:59:37.966Z,23.24
2019-05-17T15:02:10.508Z,23.24
2019-05-17T15:04:43.121Z,23.15
2019-05-17T15:07:15.605Z,23.15
2019-05-17T15:09:48.021Z,22.74
2019-05-17T15:12:28.528Z,22.27
2019-05-17T15:14:55.126Z,21.98
2019-05-17T15:17:27.795Z,22.07
2019-05-17T15:20:00.455Z,22.07
2019-05-17T15:22:34.842Z,22.60
2019-05-17T15:25:07.560Z,23.04
2019-05-17T15:27:40.177Z,23.32
2019-05-17T15:30:12.949Z,23.53
2019-05-17T15:32:45.564Z,23.54
2019-05-17T15:35:18.899Z,23.54
2019-05-17T15:37:53.096Z,23.44
2019-05-17T15:40:25.881Z,23.15
2019-05-17T15:42:58.366Z,22.98
2019-05-17T15:45:31.603Z,22.85
2019-05-17T15:48:04.226Z,22.63
2019-05-17T15:50:36.847Z,22.46
2019-05-17T15:53:10.352Z,22.53
2019-05-17T15:55:43.745Z,22.45
2019-05-17T15:58:16.346Z,22.36
2019-05-17T16:00:49.485Z,22.36
2019-05-17T16:03:21.955Z,22.41
2019-05-17T16:05:56.277Z,22.38
2019-05-17T16:08:29.814Z,22.26
2019-05-17T16:11:04.545Z,22.30
2019-05-17T16:13:37.035Z,22.30
2019-05-17T16:16:11.036Z,22.12
2019-05-17T16:18:45.147Z,21.83
2019-05-17T16:21:18.275Z,21.57
2019-05-17T16:23:52.380Z,21.42
2019-05-17T16:26:24.944Z,21.58
2019-05-17T16:28:59.003Z,21.58
2019-05-17T16:31:32.943Z,21.56
2019-05-17T16:34:05.606Z,21.59
2019-05-17T16:36:38.056Z,21.57
2019-05-17T16:39:10.588Z,21.63
2019-05-17T16:41:43.066Z,21.63
2019-05-17T16:44:15.638Z,21.55
2019-05-17T16:46:49.625Z,21.53
2019-05-17T16:49:22.378Z,21.54
2019-05-17T16:51:55.211Z,21.48
2019-05-17T16:54:28.123Z,21.41
2019-05-17T16:57:00.661Z,21.34
2019-05-17T16:59:33.379Z,21.29
2019-05-17T17:02:05.979Z,21.26
2019-05-17T17:04:38.689Z,21.21
2019-05-17T17:07:11.106Z,21.09
2019-05-17T17:09:44.170Z,20.99
2019-05-17T17:12:16.651Z,20.92
2019-05-17T17:14:50.255Z,20.92
2019-05-17T17:17:22.768Z,20.80
2019-05-17T17:19:55.414Z,20.73
2019-05-17T17:22:27.966Z,20.53
2019-05-17T17:25:00.620Z,20.53
2019-05-17T17:27:33.036Z,20.42
2019-05-17T17:30:05.985Z,20.42
2019-05-17T17:32:39.585Z,20.38
2019-05-17T17:35:13.255Z,20.29
2019-05-17T17:37:45.977Z,20.25
2019-05-17T17:40:22.611Z,20.18
2019-05-17T17:42:55.086Z,20.14
2019-05-17T17:45:27.807Z,20.16
2019-05-17T17:48:00.365Z,20.08
2019-05-17T17:50:32.969Z,19.97
2019-05-17T17:53:06.676Z,19.88
2019-05-17T17:55:39.849Z,19.76
2019-05-17T17:58:12.246Z,19.62
2019-05-17T18:00:44.937Z,19.50
2019-05-17T18:03:18.364Z,19.36
2019-05-17T18:05:51.045Z,19.26
2019-05-17T18:08:23.756Z,19.17
2019-05-17T18:10:56.366Z,19.04
2019-05-17T18:13:29.146Z,18.91
2019-05-17T18:16:01.806Z,18.85
2019-05-17T18:18:34.355Z,18.80
2019-05-17T18:21:06.934Z,18.76
2019-05-17T18:23:39.435Z,18.70
2019-05-17T18:26:12.577Z,18.58
2019-05-17T18:28:45.040Z,18.48
2019-05-17T18:31:17.600Z,18.37
2019-05-17T18:33:50.276Z,18.28
2019-05-17T18:36:22.925Z,18.19
2019-05-17T18:38:55.958Z,18.05
2019-05-17T18:41:28.507Z,17.92
2019-05-17T18:44:00.948Z,17.80
2019-05-17T18:46:33.614Z,17.72
2019-05-17T18:49:06.085Z,17.59
2019-05-17T18:51:38.501Z,17.52
2019-05-17T18:54:14.266Z,17.47
2019-05-17T18:56:46.806Z,17.38
2019-05-17T18:59:19.196Z,17.32
2019-05-17T19:01:51.729Z,17.27
2019-05-17T19:04:24.299Z,17.22
2019-05-17T19:06:56.872Z,17.23
2019-05-17T19:09:29.667Z,17.16
2019-05-17T19:12:02.276Z,17.28
2019-05-17T19:14:42.478Z,17.39
2019-05-17T19:17:09.986Z,17.38
2019-05-17T19:19:42.506Z,17.39
2019-05-17T19:22:15.286Z,17.40
2019-05-17T19:24:48.675Z,17.37
2019-05-17T19:27:22.986Z,17.28
2019-05-17T19:29:55.888Z,17.27
2019-05-17T19:32:28.626Z,17.25
2019-05-17T19:35:01.066Z,17.29
2019-05-17T19:37:33.597Z,17.32
2019-05-17T19:40:07.036Z,17.36
2019-05-17T19:42:40.906Z,17.37
2019-05-17T19:45:15.358Z,17.37
2019-05-17T19:47:47.969Z,17.42
2019-05-17T19:50:20.806Z,17.39
2019-05-17T19:52:54.528Z,17.42
2019-05-17T19:55:27.096Z,17.46
2019-05-17T19:57:59.976Z,17.45
2019-05-17T20:00:43.958Z,17.43
2019-05-17T20:03:25.356Z,17.43
2019-05-17T20:06:09.634Z,17.43
2019-05-17T20:08:51.580Z,17.45
2019-05-17T20:11:36.682Z,17.43
2019-05-17T20:14:21.596Z,17.39
2019-05-17T20:17:04.769Z,17.30
2019-05-17T20:19:45.506Z,17.30
2019-05-17T20:22:30.636Z,17.22
2019-05-17T20:25:17.316Z,17.14
2019-05-17T20:28:01.026Z,17.08
2019-05-17T20:30:44.386Z,17.05
2019-05-17T20:33:27.289Z,16.99
2019-05-17T20:36:08.345Z,16.92
2019-05-17T20:38:51.430Z,16.80
2019-05-17T20:41:31.974Z,16.72
2019-05-17T20:44:11.309Z,16.70
2019-05-17T20:46:50.233Z,16.72
2019-05-17T20:49:30.856Z,16.72
2019-05-17T20:52:04.566Z,16.69
2019-05-17T20:54:37.125Z,16.62
2019-05-17T20:57:11.395Z,16.50
2019-05-17T20:59:45.676Z,16.41
2019-05-17T21:02:18.215Z,16.34
2019-05-17T21:04:50.979Z,16.27
2019-05-17T21:07:23.500Z,16.19
2019-05-17T21:09:56.210Z,16.10
2019-05-17T21:12:28.646Z,16.04
2019-05-17T21:15:01.176Z,15.97
2019-05-17T21:17:33.807Z,15.94
2019-05-17T21:20:06.586Z,15.89
2019-05-17T21:22:39.557Z,15.90
2019-05-17T21:25:12.880Z,15.89
2019-05-17T21:27:45.329Z,15.83
2019-05-17T21:30:17.806Z,15.80
2019-05-17T21:32:50.499Z,15.81
2019-05-17T21:35:23.315Z,15.80
2019-05-17T21:37:56.065Z,15.81
2019-05-17T21:40:29.536Z,15.75
2019-05-17T21:43:02.081Z,15.76
2019-05-17T21:45:34.667Z,15.74
2019-05-17T21:48:07.525Z,15.75
2019-05-17T21:50:40.056Z,15.80
2019-05-17T21:53:12.714Z,15.80
2019-05-17T21:55:45.185Z,15.75
2019-05-17T21:58:20.310Z,15.73
2019-05-17T22:01:16.010Z,15.71
2019-05-17T22:03:49.735Z,15.65
2019-05-17T22:06:22.418Z,15.57
2019-05-17T22:08:54.845Z,15.55
2019-05-17T22:11:27.425Z,15.53
2019-05-17T22:14:00.024Z,15.48
2019-05-17T22:16:32.499Z,15.40
2019-05-17T22:19:04.966Z,15.32
2019-05-17T22:21:37.548Z,15.32
2019-05-17T22:24:10.049Z,15.34
2019-05-17T22:26:42.706Z,15.33
2019-05-17T22:29:14.927Z,15.31
2019-05-17T22:31:47.479Z,15.36
2019-05-17T22:34:20.035Z,15.37
2019-05-17T22:36:52.775Z,15.33
2019-05-17T22:39:25.589Z,15.29
2019-05-17T22:41:58.085Z,15.24
2019-05-17T22:44:30.618Z,15.23
2019-05-17T22:47:03.106Z,15.19
2019-05-17T22:49:35.496Z,15.11
2019-05-17T22:52:08.066Z,14.98
2019-05-17T22:54:40.708Z,14.86
2019-05-17T22:57:13.260Z,14.76
2019-05-17T22:59:45.825Z,14.69
2019-05-17T23:02:18.305Z,14.61
2019-05-17T23:04:50.697Z,14.54
2019-05-17T23:07:23.256Z,14.50
2019-05-17T23:09:55.765Z,14.46
2019-05-17T23:12:28.187Z,14.44
2019-05-17T23:15:00.590Z,14.42
2019-05-17T23:17:33.428Z,14.40
2019-05-17T23:20:06.676Z,14.40
2019-05-17T23:22:39.228Z,14.50
2019-05-17T23:25:11.766Z,14.59
2019-05-17T23:27:44.218Z,14.64
2019-05-17T23:30:16.720Z,14.65
2019-05-17T23:32:49.733Z,14.63
2019-05-17T23:35:22.235Z,14.65
2019-05-17T23:37:54.615Z,14.71
2019-05-17T23:40:27.061Z,14.79
2019-05-17T23:43:01.053Z,14.79
2019-05-17T23:45:33.396Z,14.70
2019-05-17T23:48:06.085Z,14.70
2019-05-17T23:50:38.496Z,14.72
2019-05-17T23:53:10.945Z,14.71
2019-05-17T23:55:43.445Z,14.73
2019-05-17T23:58:15.985Z,14.73
